sensor_id;sensor_type;location;lat;lon;timestamp;pressure;altitude;pressure_sealevel;temperature;humidity
7832;BME280;3961;42.058;25.586;2023-02-24T00:00:08;63088.06;;;7.76;100.00
7832;BME280;3961;42.058;25.586;2023-02-24T00:02:55;63090.94;;;7.79;100.00
7832;BME280;3961;42.058;25.586;2023-02-24T00:05:21;63071.69;;;7.59;100.00
7832;BME280;3961;42.058;25.586;2023-02-24T00:07:48;63083.94;;;7.77;100.00
7832;BME280;3961;42.058;25.586;2023-02-24T00:10:14;63093.81;;;7.81;100.00
7832;BME280;3961;42.058;25.586;2023-02-24T00:12:44;63078.03;;;7.65;100.00
7832;BME280;3961;42.058;25.586;2023-02-24T00:15:13;63088.63;;;7.77;100.00
7832;BME280;3961;42.058;25.586;2023-02-24T00:17:39;63069.16;;;7.55;100.00
7832;BME280;3961;42.058;25.586;2023-02-24T00:20:05;63072.75;;;7.65;100.00
7832;BME280;3961;42.058;25.586;2023-02-24T00:22:38;63056.06;;;7.50;100.00
7832;BME280;3961;42.058;25.586;2023-02-24T00:25:03;63067.66;;;7.56;100.00
7832;BME280;3961;42.058;25.586;2023-02-24T00:27:29;63066.75;;;7.57;100.00
7832;BME280;3961;42.058;25.586;2023-02-24T00:29:54;63073.66;;;7.63;100.00
7832;BME280;3961;42.058;25.586;2023-02-24T00:32:20;63072.59;;;7.58;100.00
7832;BME280;3961;42.058;25.586;2023-02-24T00:34:47;63082.97;;;7.67;100.00
7832;BME280;3961;42.058;25.586;2023-02-24T00:37:12;63084.59;;;7.73;100.00
7832;BME280;3961;42.058;25.586;2023-02-24T00:39:40;63076.31;;;7.63;100.00
7832;BME280;3961;42.058;25.586;2023-02-24T00:42:08;63058.94;;;7.53;100.00
7832;BME280;3961;42.058;25.586;2023-02-24T00:44:42;63068.16;;;7.61;100.00
7832;BME280;3961;42.058;25.586;2023-02-24T00:47:09;63054.91;;;7.49;100.00
7832;BME280;3961;42.058;25.586;2023-02-24T00:49:35;63069.63;;;7.60;100.00
7832;BME280;3961;42.058;25.586;2023-02-24T00:52:08;63054.69;;;7.47;100.00
7832;BME280;3961;42.058;25.586;2023-02-24T00:54:36;63078.03;;;7.65;100.00
7832;BME280;3961;42.058;25.586;2023-02-24T00:57:02;63080.56;;;7.69;100.00
7832;BME280;3961;42.058;25.586;2023-02-24T00:59:27;63073.91;;;7.66;100.00
7832;BME280;3961;42.058;25.586;2023-02-24T01:01:53;63077.69;;;7.67;100.00
7832;BME280;3961;42.058;25.586;2023-02-24T01:04:19;63088.63;;;7.77;100.00
7832;BME280;3961;42.058;25.586;2023-02-24T01:06:51;63080.00;;;7.69;100.00
7832;BME280;3961;42.058;25.586;2023-02-24T01:09:25;63082.31;;;7.71;100.00
7832;BME280;3961;42.058;25.586;2023-02-24T01:11:52;63074.47;;;7.66;100.00
7832;BME280;3961;42.058;25.586;2023-02-24T01:14:37;63064.13;;;7.57;100.00
7832;BME280;3961;42.058;25.586;2023-02-24T01:17:07;63062.72;;;7.54;100.00
7832;BME280;3961;42.058;25.586;2023-02-24T01:19:34;63050.91;;;7.46;100.00
7832;BME280;3961;42.058;25.586;2023-02-24T01:22:03;63037.06;;;7.33;100.00
7832;BME280;3961;42.058;25.586;2023-02-24T01:24:31;63038.00;;;7.32;100.00
7832;BME280;3961;42.058;25.586;2023-02-24T01:26:57;63041.19;;;7.32;100.00
7832;BME280;3961;42.058;25.586;2023-02-24T01:29:23;63039.72;;;7.33;100.00
7832;BME280;3961;42.058;25.586;2023-02-24T01:31:50;63031.91;;;7.29;100.00
7832;BME280;3961;42.058;25.586;2023-02-24T01:34:17;63034.28;;;7.26;100.00
7832;BME280;3961;42.058;25.586;2023-02-24T01:36:44;63017.88;;;7.14;100.00
7832;BME280;3961;42.058;25.586;2023-02-24T01:39:11;63028.53;;;7.21;100.00
7832;BME280;3961;42.058;25.586;2023-02-24T01:41:43;63035.09;;;7.29;100.00
7832;BME280;3961;42.058;25.586;2023-02-24T01:46:47;63043.16;;;7.36;100.00
7832;BME280;3961;42.058;25.586;2023-02-24T01:49:33;63046.63;;;7.39;100.00
7832;BME280;3961;42.058;25.586;2023-02-24T01:52:08;63027.06;;;7.22;100.00
7832;BME280;3961;42.058;25.586;2023-02-24T01:54:57;63031.66;;;7.26;100.00
7832;BME280;3961;42.058;25.586;2023-02-24T01:57:27;63049.25;;;7.39;100.00
7832;BME280;3961;42.058;25.586;2023-02-24T01:59:54;63037.41;;;7.31;100.00
7832;BME280;3961;42.058;25.586;2023-02-24T02:02:36;63025.91;;;7.21;100.00
7832;BME280;3961;42.058;25.586;2023-02-24T02:05:06;63031.66;;;7.26;100.00
7832;BME280;3961;42.058;25.586;2023-02-24T02:07:33;63030.97;;;7.30;100.00
7832;BME280;3961;42.058;25.586;2023-02-24T02:10:00;63052.72;;;7.43;100.00
7832;BME280;3961;42.058;25.586;2023-02-24T02:12:30;63033.63;;;7.30;100.00
7832;BME280;3961;42.058;25.586;2023-02-24T02:14:56;63030.25;;;7.23;100.00
7832;BME280;3961;42.058;25.586;2023-02-24T02:30:51;63017.75;;;7.19;100.00
7832;BME280;3961;42.058;25.586;2023-02-24T02:36:31;63026.81;;;7.20;100.00
7832;BME280;3961;42.058;25.586;2023-02-24T02:39:08;63026.72;;;7.24;100.00
7832;BME280;3961;42.058;25.586;2023-02-24T02:41:48;63027.28;;;7.25;100.00
7832;BME280;3961;42.058;25.586;2023-02-24T02:44:24;63039.13;;;7.33;100.00
7832;BME280;3961;42.058;25.586;2023-02-24T02:47:24;63043.75;;;7.37;100.00
7832;BME280;3961;42.058;25.586;2023-02-24T02:49:56;63029.00;;;7.26;100.00
7832;BME280;3961;42.058;25.586;2023-02-24T02:52:34;63026.13;;;7.24;100.00
7832;BME280;3961;42.058;25.586;2023-02-24T02:55:11;63031.16;;;7.21;100.00
7832;BME280;3961;42.058;25.586;2023-02-24T02:57:45;63016.34;;;7.15;100.00
7832;BME280;3961;42.058;25.586;2023-02-24T03:00:15;63027.06;;;7.22;100.00
7832;BME280;3961;42.058;25.586;2023-02-24T03:02:53;63028.78;;;7.24;100.00
7832;BME280;3961;42.058;25.586;2023-02-24T03:05:25;63030.75;;;7.28;100.00
7832;BME280;3961;42.058;25.586;2023-02-24T03:07:56;63040.28;;;7.34;100.00
7832;BME280;3961;42.058;25.586;2023-02-24T03:10:28;63031.66;;;7.26;100.00
7832;BME280;3961;42.058;25.586;2023-02-24T03:12:57;63023.59;;;7.19;100.00
7832;BME280;3961;42.058;25.586;2023-02-24T03:15:26;62973.47;;;6.80;100.00
7832;BME280;3961;42.058;25.586;2023-02-24T03:18:05;63017.28;;;7.14;100.00
7832;BME280;3961;42.058;25.586;2023-02-24T03:20:53;63027.63;;;7.23;100.00
7832;BME280;3961;42.058;25.586;2023-02-24T03:23:24;63027.06;;;7.22;100.00
7832;BME280;3961;42.058;25.586;2023-02-24T03:26:14;63023.84;;;7.22;100.00
7832;BME280;3961;42.058;25.586;2023-02-24T03:29:04;63021.53;;;7.20;100.00
7832;BME280;3961;42.058;25.586;2023-02-24T03:31:50;63020.50;;;7.14;100.00
7832;BME280;3961;42.058;25.586;2023-02-24T03:35:10;63008.56;;;7.11;100.00
7832;BME280;3961;42.058;25.586;2023-02-24T03:37:10;62993.13;;;6.92;100.00
7832;BME280;3961;42.058;25.586;2023-02-24T03:39:36;63022.34;;;7.23;100.00
7832;BME280;3961;42.058;25.586;2023-02-24T03:42:05;63027.88;;;7.25;100.00
7832;BME280;3961;42.058;25.586;2023-02-24T03:44:33;63035.34;;;7.32;100.00
7832;BME280;3961;42.058;25.586;2023-02-24T03:47:00;63009.47;;;7.09;100.00
7832;BME280;3961;42.058;25.586;2023-02-24T03:49:26;62983.00;;;6.86;100.00
7832;BME280;3961;42.058;25.586;2023-02-24T04:07:04;62987.69;;;6.85;100.00
7832;BME280;3961;42.058;25.586;2023-02-24T04:09:53;63012.34;;;7.12;100.00
7832;BME280;3961;42.058;25.586;2023-02-24T04:12:14;63013.50;;;7.13;100.00
7832;BME280;3961;42.058;25.586;2023-02-24T04:14:49;63018.19;;;7.12;100.00
7832;BME280;3961;42.058;25.586;2023-02-24T04:17:25;63027.63;;;7.23;100.00
7832;BME280;3961;42.058;25.586;2023-02-24T04:19:57;63021.88;;;7.18;100.00
7832;BME280;3961;42.058;25.586;2023-02-24T04:22:25;63025.66;;;7.19;100.00
7832;BME280;3961;42.058;25.586;2023-02-24T04:24:55;63030.75;;;7.28;100.00
7832;BME280;3961;42.058;25.586;2023-02-24T04:27:22;63032.13;;;7.31;100.00
7832;BME280;3961;42.058;25.586;2023-02-24T04:29:53;63024.06;;;7.24;100.00
7832;BME280;3961;42.058;25.586;2023-02-24T04:32:23;63021.88;;;7.18;100.00
7832;BME280;3961;42.058;25.586;2023-02-24T04:34:51;63022.78;;;7.16;100.00
7832;BME280;3961;42.058;25.586;2023-02-24T04:37:17;63035.44;;;7.27;100.00
7832;BME280;3961;42.058;25.586;2023-02-24T04:39:48;63013.84;;;7.11;100.00
7832;BME280;3961;42.058;25.586;2023-02-24T04:42:16;63007.16;;;7.07;100.00
7832;BME280;3961;42.058;25.586;2023-02-24T04:44:44;63009.22;;;7.06;100.00
7832;BME280;3961;42.058;25.586;2023-02-24T04:47:10;63019.00;;;7.15;100.00
7832;BME280;3961;42.058;25.586;2023-02-24T04:49:36;62984.47;;;6.85;100.00
7832;BME280;3961;42.058;25.586;2023-02-24T04:52:06;63009.47;;;7.09;100.00
7832;BME280;3961;42.058;25.586;2023-02-24T04:54:33;63007.50;;;7.05;100.00
7832;BME280;3961;42.058;25.586;2023-02-24T04:56:59;63003.22;;;6.99;100.00
7832;BME280;3961;42.058;25.586;2023-02-24T04:59:26;62995.91;;;6.99;100.00
7832;BME280;3961;42.058;25.586;2023-02-24T05:01:51;62960.34;;;6.63;100.00
7832;BME280;3961;42.058;25.586;2023-02-24T05:04:18;62972.31;;;6.79;100.00
7832;BME280;3961;42.058;25.586;2023-02-24T05:06:44;62993.44;;;6.90;100.00
7832;BME280;3961;42.058;25.586;2023-02-24T05:09:11;63000.59;;;6.99;100.00
7832;BME280;3961;42.058;25.586;2023-02-24T05:11:43;63010.38;;;7.07;100.00
7832;BME280;3961;42.058;25.586;2023-02-24T05:14:10;63003.22;;;6.99;100.00
7832;BME280;3961;42.058;25.586;2023-02-24T05:16:44;62999.44;;;6.98;100.00
7832;BME280;3961;42.058;25.586;2023-02-24T05:19:13;62996.31;;;6.93;100.00
7832;BME280;3961;42.058;25.586;2023-02-24T05:21:58;62973.00;;;6.74;100.00
7832;BME280;3961;42.058;25.586;2023-02-24T05:24:25;62969.31;;;6.69;100.00
7832;BME280;3961;42.058;25.586;2023-02-24T05:26:52;62993.13;;;6.92;100.00
7832;BME280;3961;42.058;25.586;2023-02-24T05:29:33;62986.44;;;6.89;100.00
7832;BME280;3961;42.058;25.586;2023-02-24T05:31:59;62999.09;;;7.00;100.00
7832;BME280;3961;42.058;25.586;2023-02-24T05:34:26;63002.22;;;7.05;100.00
7832;BME280;3961;42.058;25.586;2023-02-24T05:36:52;63019.56;;;7.16;100.00
7832;BME280;3961;42.058;25.586;2023-02-24T05:39:18;63010.38;;;7.07;100.00
7832;BME280;3961;42.058;25.586;2023-02-24T05:41:47;63015.22;;;7.14;100.00
7832;BME280;3961;42.058;25.586;2023-02-24T05:44:15;63014.75;;;7.09;100.00
7832;BME280;3961;42.058;25.586;2023-02-24T05:46:43;63015.56;;;7.12;100.00
7832;BME280;3961;42.058;25.586;2023-02-24T05:49:23;63028.53;;;7.21;100.00
7832;BME280;3961;42.058;25.586;2023-02-24T05:51:57;63024.16;;;7.20;100.00
7832;BME280;3961;42.058;25.586;2023-02-24T05:54:33;63024.41;;;7.22;100.00
7832;BME280;3961;42.058;25.586;2023-02-24T05:57:06;62995.09;;;6.96;100.00
7832;BME280;3961;42.058;25.586;2023-02-24T05:59:33;63019.22;;;7.18;100.00
7832;BME280;3961;42.058;25.586;2023-02-24T06:02:00;63039.72;;;7.33;100.00
7832;BME280;3961;42.058;25.586;2023-02-24T06:04:32;63037.06;;;7.33;100.00
7832;BME280;3961;42.058;25.586;2023-02-24T06:07:06;63041.44;;;7.35;100.00
7832;BME280;3961;42.058;25.586;2023-02-24T06:09:40;63033.03;;;7.30;100.00
7832;BME280;3961;42.058;25.586;2023-02-24T06:12:10;63018.09;;;7.17;100.00
7832;BME280;3961;42.058;25.586;2023-02-24T06:14:36;63022.94;;;7.23;100.00
7832;BME280;3961;42.058;25.586;2023-02-24T06:17:02;63028.44;;;7.26;100.00
7832;BME280;3961;42.058;25.586;2023-02-24T06:19:27;63062.72;;;7.54;100.00
7832;BME280;3961;42.058;25.586;2023-02-24T06:21:57;63061.56;;;7.53;100.00
7832;BME280;3961;42.058;25.586;2023-02-24T06:24:30;63043.50;;;7.34;100.00
7832;BME280;3961;42.058;25.586;2023-02-24T06:26:57;63059.28;;;7.51;100.00
7832;BME280;3961;42.058;25.586;2023-02-24T06:29:29;63018.66;;;7.17;100.00
7832;BME280;3961;42.058;25.586;2023-02-24T06:31:55;63082.06;;;7.68;100.00
7832;BME280;3961;42.058;25.586;2023-02-24T06:34:25;63073.09;;;7.63;100.00
7832;BME280;3961;42.058;25.586;2023-02-24T06:36:52;63089.78;;;7.78;100.00
7832;BME280;3961;42.058;25.586;2023-02-24T06:39:17;63092.56;;;7.85;100.00
7832;BME280;3961;42.058;25.586;2023-02-24T06:41:44;63106.13;;;7.94;100.00
7832;BME280;3961;42.058;25.586;2023-02-24T06:44:10;63120.06;;;8.02;100.00
7832;BME280;3961;42.058;25.586;2023-02-24T06:46:36;63116.28;;;8.01;100.00
7832;BME280;3961;42.058;25.586;2023-02-24T06:49:02;63116.03;;;7.98;100.00
7832;BME280;3961;42.058;25.586;2023-02-24T06:51:28;63094.84;;;7.87;100.00
7832;BME280;3961;42.058;25.586;2023-02-24T06:53:57;63093.22;;;7.81;100.00
7832;BME280;3961;42.058;25.586;2023-02-24T06:56:24;63070.44;;;7.63;100.00
7832;BME280;3961;42.058;25.586;2023-02-24T06:58:51;63117.56;;;8.09;100.00
7832;BME280;3961;42.058;25.586;2023-02-24T07:01:20;63155.47;;;8.35;100.00
7832;BME280;3961;42.058;25.586;2023-02-24T07:03:53;63324.28;;;9.89;100.00
7832;BME280;3961;42.058;25.586;2023-02-24T07:06:39;63275.34;;;9.41;100.00
7832;BME280;3961;42.058;25.586;2023-02-24T07:09:11;63276.72;;;9.44;100.00
7832;BME280;3961;42.058;25.586;2023-02-24T07:11:39;63305.00;;;9.69;100.00
7832;BME280;3961;42.058;25.586;2023-02-24T07:14:06;63270.97;;;9.39;100.00
7832;BME280;3961;42.058;25.586;2023-02-24T07:16:33;63215.38;;;8.88;100.00
7832;BME280;3961;42.058;25.586;2023-02-24T07:19:01;63272.22;;;9.36;100.00
7832;BME280;3961;42.058;25.586;2023-02-24T07:21:29;63228.88;;;9.02;100.00
7832;BME280;3961;42.058;25.586;2023-02-24T07:23:56;63216.75;;;8.92;100.00
7832;BME280;3961;42.058;25.586;2023-02-24T07:26:24;63228.31;;;9.02;100.00
7832;BME280;3961;42.058;25.586;2023-02-24T07:28:51;63236.47;;;9.04;100.00
7832;BME280;3961;42.058;25.586;2023-02-24T07:31:21;63265.53;;;9.32;100.00
7832;BME280;3961;42.058;25.586;2023-02-24T07:33:51;63272.47;;;9.38;100.00
7832;BME280;3961;42.058;25.586;2023-02-24T07:36:17;63211.00;;;8.87;100.00
7832;BME280;3961;42.058;25.586;2023-02-24T07:38:49;63225.41;;;8.99;100.00
7832;BME280;3961;42.058;25.586;2023-02-24T07:41:17;63229.22;;;9.00;100.00
7832;BME280;3961;42.058;25.586;2023-02-24T07:43:48;63291.25;;;9.53;100.00
7832;BME280;3961;42.058;25.586;2023-02-24T07:46:21;63516.72;;;11.53;100.00
7832;BME280;3961;42.058;25.586;2023-02-24T07:48:51;63418.50;;;10.67;100.00
7832;BME280;3961;42.058;25.586;2023-02-24T07:51:20;63397.94;;;10.51;100.00
7832;BME280;3961;42.058;25.586;2023-02-24T07:53:54;63395.06;;;10.49;100.00
7832;BME280;3961;42.058;25.586;2023-02-24T07:56:22;63427.38;;;10.77;100.00
7832;BME280;3961;42.058;25.586;2023-02-24T07:59:02;63380.41;;;10.33;100.00
7832;BME280;3961;42.058;25.586;2023-02-24T08:01:36;63381.88;;;10.32;100.00
7832;BME280;3961;42.058;25.586;2023-02-24T08:04:06;63423.47;;;10.69;100.00
7832;BME280;3961;42.058;25.586;2023-02-24T08:06:39;63451.19;;;10.93;100.00
7832;BME280;3961;42.058;25.586;2023-02-24T08:09:16;63472.00;;;11.11;100.00
7832;BME280;3961;42.058;25.586;2023-02-24T08:11:50;63486.69;;;11.27;100.00
7832;BME280;3961;42.058;25.586;2023-02-24T08:14:28;63505.41;;;11.45;100.00
7832;BME280;3961;42.058;25.586;2023-02-24T08:17:10;63553.19;;;11.85;100.00
7832;BME280;3961;42.058;25.586;2023-02-24T08:19:36;63694.97;;;13.09;98.99
7832;BME280;3961;42.058;25.586;2023-02-24T08:22:10;63728.81;;;13.41;92.43
7832;BME280;3961;42.058;25.586;2023-02-24T08:24:46;63718.53;;;13.28;91.50
7832;BME280;3961;42.058;25.586;2023-02-24T08:27:16;63675.28;;;12.92;91.68
7832;BME280;3961;42.058;25.586;2023-02-24T08:29:49;63817.03;;;14.14;92.42
7832;BME280;3961;42.058;25.586;2023-02-24T08:32:32;63780.75;;;13.85;93.00
7832;BME280;3961;42.058;25.586;2023-02-24T08:35:00;63973.97;;;15.54;86.77
7832;BME280;3961;42.058;25.586;2023-02-24T08:37:32;63995.47;;;15.72;84.15
7832;BME280;3961;42.058;25.586;2023-02-24T08:40:06;63967.56;;;15.48;82.97
7832;BME280;3961;42.058;25.586;2023-02-24T08:42:33;64084.97;;;16.51;79.37
7832;BME280;3961;42.058;25.586;2023-02-24T08:45:02;64192.56;;;17.44;75.92
7832;BME280;3961;42.058;25.586;2023-02-24T08:47:28;64214.09;;;17.63;74.61
7832;BME280;3961;42.058;25.586;2023-02-24T08:50:00;64298.69;;;18.32;71.98
7832;BME280;3961;42.058;25.586;2023-02-24T08:52:27;64305.91;;;18.41;70.83
7832;BME280;3961;42.058;25.586;2023-02-24T08:54:53;64317.56;;;18.51;67.17
7832;BME280;3961;42.058;25.586;2023-02-24T08:57:26;64183.50;;;17.39;67.89
7832;BME280;3961;42.058;25.586;2023-02-24T08:59:52;64053.34;;;16.21;69.56
7832;BME280;3961;42.058;25.586;2023-02-24T09:02:24;64000.13;;;15.76;71.36
7832;BME280;3961;42.058;25.586;2023-02-24T09:05:01;63923.44;;;15.09;74.43
7832;BME280;3961;42.058;25.586;2023-02-24T09:07:37;63927.53;;;15.13;74.79
7832;BME280;3961;42.058;25.586;2023-02-24T09:10:16;63928.09;;;15.13;74.30
7832;BME280;3961;42.058;25.586;2023-02-24T09:12:43;63922.28;;;15.08;74.26
7832;BME280;3961;42.058;25.586;2023-02-24T09:15:10;63860.78;;;14.55;74.72
7832;BME280;3961;42.058;25.586;2023-02-24T09:17:36;63841.84;;;14.40;75.57
7832;BME280;3961;42.058;25.586;2023-02-24T09:20:08;63900.25;;;14.89;75.58
7832;BME280;3961;42.058;25.586;2023-02-24T09:23:00;63925.19;;;15.11;74.81
7832;BME280;3961;42.058;25.586;2023-02-24T09:25:33;63915.91;;;15.03;74.64
7832;BME280;3961;42.058;25.586;2023-02-24T09:28:12;63936.00;;;15.18;74.39
7832;BME280;3961;42.058;25.586;2023-02-24T09:30:59;63939.13;;;15.23;74.21
7832;BME280;3961;42.058;25.586;2023-02-24T09:33:36;63905.34;;;14.98;74.45
7832;BME280;3961;42.058;25.586;2023-02-24T09:36:13;63922.88;;;15.09;74.43
7832;BME280;3961;42.058;25.586;2023-02-24T09:38:50;63921.72;;;15.08;73.64
7832;BME280;3961;42.058;25.586;2023-02-24T09:47:23;63845.69;;;14.41;75.15
7832;BME280;3961;42.058;25.586;2023-02-24T09:50:16;63820.41;;;14.22;76.49
7832;BME280;3961;42.058;25.586;2023-02-24T09:52:58;63786.31;;;13.87;76.92
7832;BME280;3961;42.058;25.586;2023-02-24T09:55:56;63752.34;;;13.60;78.21
7832;BME280;3961;42.058;25.586;2023-02-24T09:58:55;63741.91;;;13.51;78.90
7832;BME280;3961;42.058;25.586;2023-02-24T10:06:48;63750.97;;;13.56;80.65
7832;BME280;3961;42.058;25.586;2023-02-24T10:09:24;63730.66;;;13.38;79.25
7832;BME280;3961;42.058;25.586;2023-02-24T10:11:57;63792.34;;;13.95;80.37
7832;BME280;3961;42.058;25.586;2023-02-24T10:14:33;63812.63;;;14.12;79.48
7832;BME280;3961;42.058;25.586;2023-02-24T10:17:26;63819.59;;;14.19;78.95
7832;BME280;3961;42.058;25.586;2023-02-24T10:20:14;63845.69;;;14.41;78.50
7832;BME280;3961;42.058;25.586;2023-02-24T10:23:02;63865.44;;;14.59;77.78
7832;BME280;3961;42.058;25.586;2023-02-24T10:25:46;63899.09;;;14.88;77.55
7832;BME280;3961;42.058;25.586;2023-02-24T10:28:20;63919.38;;;15.06;76.30
7832;BME280;3961;42.058;25.586;2023-02-24T10:31:00;63916.25;;;15.01;75.98
7832;BME280;3961;42.058;25.586;2023-02-24T10:33:41;63889.78;;;14.80;77.17
7832;BME280;3961;42.058;25.586;2023-02-24T10:36:13;63896.75;;;14.86;77.04
7832;BME280;3961;42.058;25.586;2023-02-24T10:38:42;63873.78;;;14.68;77.43
7832;BME280;3961;42.058;25.586;2023-02-24T10:41:12;63870.44;;;14.61;77.67
7832;BME280;3961;42.058;25.586;2023-02-24T10:43:39;63860.56;;;14.52;78.27
7832;BME280;3961;42.058;25.586;2023-02-24T10:48:56;63904.09;;;14.90;77.21
7832;BME280;3961;42.058;25.586;2023-02-24T10:51:51;63920.31;;;15.04;77.77
7832;BME280;3961;42.058;25.586;2023-02-24T10:54:27;63896.28;;;14.81;76.70
7832;BME280;3961;42.058;25.586;2023-02-24T10:57:11;63866.25;;;14.62;77.20
7832;BME280;3961;42.058;25.586;2023-02-24T10:59:53;63828.88;;;14.27;78.42
7832;BME280;3961;42.058;25.586;2023-02-24T11:02:34;63774.38;;;13.79;80.71
7832;BME280;3961;42.058;25.586;2023-02-24T11:05:21;63791.78;;;13.94;79.94
7832;BME280;3961;42.058;25.586;2023-02-24T11:10:50;63750.63;;;13.58;81.35
7832;BME280;3961;42.058;25.586;2023-02-24T11:13:23;63756.03;;;13.65;81.54
7832;BME280;3961;42.058;25.586;2023-02-24T11:16:09;63809.72;;;14.10;81.85
7832;BME280;3961;42.058;25.586;2023-02-24T11:18:54;63822.84;;;14.19;81.65
7832;BME280;3961;42.058;25.586;2023-02-24T11:21:23;63884.56;;;14.75;80.19
7832;BME280;3961;42.058;25.586;2023-02-24T11:23:53;63866.03;;;14.59;79.21
7832;BME280;3961;42.058;25.586;2023-02-24T11:42:26;63963.50;;;15.44;76.25
7832;BME280;3961;42.058;25.586;2023-02-24T11:45:24;63979.56;;;15.56;77.59
7832;BME280;3961;42.058;25.586;2023-02-24T11:47:58;63966.75;;;15.45;77.90
7832;BME280;3961;42.058;25.586;2023-02-24T11:50:36;63990.59;;;15.66;75.83
7832;BME280;3961;42.058;25.586;2023-02-24T11:53:34;63972.00;;;15.50;77.46
7832;BME280;3961;42.058;25.586;2023-02-24T11:56:06;63993.50;;;15.68;76.96
7832;BME280;3961;42.058;25.586;2023-02-24T11:58:47;64009.06;;;15.87;77.56
7832;BME280;3961;42.058;25.586;2023-02-24T12:01:29;63996.41;;;15.71;75.51
7832;BME280;3961;42.058;25.586;2023-02-24T12:04:18;64176.84;;;17.31;81.04
7832;BME280;3961;42.058;25.586;2023-02-24T12:06:53;64342.03;;;18.72;74.28
7832;BME280;3961;42.058;25.586;2023-02-24T12:09:24;64373.16;;;19.02;70.60
7832;BME280;3961;42.058;25.586;2023-02-24T12:11:57;64480.03;;;19.90;68.37
7832;BME280;3961;42.058;25.586;2023-02-24T12:14:32;64277.13;;;18.13;69.03
7832;BME280;3961;42.058;25.586;2023-02-24T12:17:24;64184.78;;;17.35;71.76
7832;BME280;3961;42.058;25.586;2023-02-24T12:22:49;63993.16;;;15.70;76.34
7832;BME280;3961;42.058;25.586;2023-02-24T12:25:17;64018.50;;;15.90;76.90
7832;BME280;3961;42.058;25.586;2023-02-24T12:28:09;64028.34;;;15.99;76.74
7832;BME280;3961;42.058;25.586;2023-02-24T12:39:12;63998.16;;;15.72;78.08
7832;BME280;3961;42.058;25.586;2023-02-24T12:47:16;64037.88;;;16.09;78.20
7832;BME280;3961;42.058;25.586;2023-02-24T12:49:57;64080.06;;;16.44;77.01
7832;BME280;3961;42.058;25.586;2023-02-24T13:06:05;64061.69;;;16.30;77.24
7832;BME280;3961;42.058;25.586;2023-02-24T13:08:54;64034.97;;;16.07;77.08
7832;BME280;3961;42.058;25.586;2023-02-24T13:14:15;64022.91;;;15.92;78.24
7832;BME280;3961;42.058;25.586;2023-02-24T13:16:44;64014.06;;;15.89;78.18
7832;BME280;3961;42.058;25.586;2023-02-24T13:24:32;63975.84;;;15.51;79.30
7832;BME280;3961;42.058;25.586;2023-02-24T13:29:29;63965.25;;;15.46;80.13
7832;BME280;3961;42.058;25.586;2023-02-24T13:31:55;63945.16;;;15.31;80.54
7832;BME280;3961;42.058;25.586;2023-02-24T13:34:31;63936.81;;;15.21;80.47
7832;BME280;3961;42.058;25.586;2023-02-24T13:36:57;63930.78;;;15.13;81.29
7832;BME280;3961;42.058;25.586;2023-02-24T13:39:35;63943.19;;;15.27;81.35
7832;BME280;3961;42.058;25.586;2023-02-24T13:42:23;63945.50;;;15.29;81.14
7832;BME280;3961;42.058;25.586;2023-02-24T13:47:53;63972.81;;;15.53;80.01
7832;BME280;3961;42.058;25.586;2023-02-24T13:58:52;63960.38;;;15.39;79.84
7832;BME280;3961;42.058;25.586;2023-02-24T14:01:26;63936.56;;;15.19;81.08
7832;BME280;3961;42.058;25.586;2023-02-24T14:04:21;63919.97;;;15.06;81.73
7832;BME280;3961;42.058;25.586;2023-02-24T14:06:52;63927.28;;;15.10;80.97
7832;BME280;3961;42.058;25.586;2023-02-24T14:09:23;63938.19;;;15.25;82.04
7832;BME280;3961;42.058;25.586;2023-02-24T14:11:57;63910.09;;;14.98;80.68
7832;BME280;3961;42.058;25.586;2023-02-24T14:14:25;63905.25;;;14.91;80.99
7832;BME280;3961;42.058;25.586;2023-02-24T14:16:52;63949.91;;;15.30;80.46
7832;BME280;3961;42.058;25.586;2023-02-24T14:19:18;63966.41;;;15.47;80.14
7832;BME280;3961;42.058;25.586;2023-02-24T14:21:57;63926.81;;;15.17;79.54
7832;BME280;3961;42.058;25.586;2023-02-24T14:24:26;63980.16;;;15.57;79.77
7832;BME280;3961;42.058;25.586;2023-02-24T14:26:54;63936.69;;;15.26;79.72
7832;BME280;3961;42.058;25.586;2023-02-24T14:29:23;63923.34;;;15.14;79.74
7832;BME280;3961;42.058;25.586;2023-02-24T14:31:52;64106.84;;;16.67;80.91
7832;BME280;3961;42.058;25.586;2023-02-24T14:34:24;64100.66;;;16.64;74.95
7832;BME280;3961;42.058;25.586;2023-02-24T14:36:53;64105.66;;;16.66;75.00
7832;BME280;3961;42.058;25.586;2023-02-24T14:39:25;64082.28;;;16.51;75.06
7832;BME280;3961;42.058;25.586;2023-02-24T14:42:13;64047.75;;;16.18;75.89
7832;BME280;3961;42.058;25.586;2023-02-24T14:44:45;64026.94;;;15.95;76.65
7832;BME280;3961;42.058;25.586;2023-02-24T14:47:13;63956.19;;;15.40;78.85
7832;BME280;3961;42.058;25.586;2023-02-24T14:49:40;63959.56;;;15.36;79.02
7832;BME280;3961;42.058;25.586;2023-02-24T14:52:15;63942.97;;;15.24;79.79
7832;BME280;3961;42.058;25.586;2023-02-24T14:54:46;63938.31;;;15.20;79.87
7832;BME280;3961;42.058;25.586;2023-02-24T14:57:18;63902.56;;;14.91;80.32
7832;BME280;3961;42.058;25.586;2023-02-24T14:59:48;63922.28;;;15.08;80.15
7832;BME280;3961;42.058;25.586;2023-02-24T15:02:21;63929.59;;;15.12;80.45
7832;BME280;3961;42.058;25.586;2023-02-24T15:04:52;63915.31;;;15.02;81.06
7832;BME280;3961;42.058;25.586;2023-02-24T15:07:22;63882.25;;;14.73;81.40
7832;BME280;3961;42.058;25.586;2023-02-24T15:09:49;63890.72;;;14.78;81.50
7832;BME280;3961;42.058;25.586;2023-02-24T15:15:04;63852.56;;;14.52;82.36
7832;BME280;3961;42.058;25.586;2023-02-24T15:17:31;63845.44;;;14.39;82.78
7832;BME280;3961;42.058;25.586;2023-02-24T15:19:57;63836.97;;;14.34;83.86
7832;BME280;3961;42.058;25.586;2023-02-24T15:25:39;63825.63;;;14.26;83.71
7832;BME280;3961;42.058;25.586;2023-02-24T15:27:53;63828.66;;;14.24;83.59
7832;BME280;3961;42.058;25.586;2023-02-24T15:30:34;63820.53;;;14.17;84.93
7832;BME280;3961;42.058;25.586;2023-02-24T15:35:33;63800.09;;;14.04;84.63
7832;BME280;3961;42.058;25.586;2023-02-24T15:38:00;63771.13;;;13.78;85.16
7832;BME280;3961;42.058;25.586;2023-02-24T15:40:27;63757.56;;;13.64;86.06
7832;BME280;3961;42.058;25.586;2023-02-24T15:42:56;63749.47;;;13.57;86.32
7832;BME280;3961;42.058;25.586;2023-02-24T15:45:33;63748.88;;;13.57;86.89